sensor_id;sensor_type;location;lat;lon;timestamp;pressure;altitude;pressure_sealevel;temperature;humidity
63339;BME280;47485;51.378;-1.342;2023-04-10T00:01:43;100070.29;;;8.01;32.45
63339;BME280;47485;51.378;-1.342;2023-04-10T00:04:25;100063.62;;;5.79;34.04
63339;BME280;47485;51.378;-1.342;2023-04-10T00:07:41;100049.27;;;6.59;33.91
63339;BME280;47485;51.378;-1.342;2023-04-10T00:11:01;100041.30;;;7.05;32.95
63339;BME280;47485;51.378;-1.342;2023-04-10T00:13:41;100037.09;;;6.91;31.87
63339;BME280;47485;51.378;-1.342;2023-04-10T00:17:55;100031.97;;;10.39;30.17
63339;BME280;47485;51.378;-1.342;2023-04-10T00:21:23;100030.36;;;6.54;33.63
63339;BME280;47485;51.378;-1.342;2023-04-10T00:27:00;100029.70;;;7.67;32.08
63339;BME280;47485;51.378;-1.342;2023-04-10T00:29:40;100037.69;;;5.99;37.17
63339;BME280;47485;51.378;-1.342;2023-04-10T00:32:38;100027.17;;;10.29;33.50
63339;BME280;47485;51.378;-1.342;2023-04-10T00:36:06;100025.25;;;10.84;32.36
63339;BME280;47485;51.378;-1.342;2023-04-10T00:40:11;100023.57;;;8.14;33.45
63339;BME280;47485;51.378;-1.342;2023-04-10T00:42:47;100024.42;;;7.17;34.79
63339;BME280;47485;51.378;-1.342;2023-04-10T00:45:35;100014.69;;;9.63;33.59
63339;BME280;47485;51.378;-1.342;2023-04-10T00:48:04;100014.50;;;9.50;33.22
63339;BME280;47485;51.378;-1.342;2023-04-10T00:50:57;100017.00;;;9.87;34.23
63339;BME280;47485;51.378;-1.342;2023-04-10T00:53:26;100016.92;;;7.31;35.58
63339;BME280;47485;51.378;-1.342;2023-04-10T00:56:53;100011.73;;;5.80;38.66
63339;BME280;47485;51.378;-1.342;2023-04-10T00:59:23;100015.19;;;6.68;39.13
63339;BME280;47485;51.378;-1.342;2023-04-10T01:01:50;100013.31;;;6.33;38.32
63339;BME280;47485;51.378;-1.342;2023-04-10T01:04:20;100017.96;;;6.88;39.04
63339;BME280;47485;51.378;-1.342;2023-04-10T01:07:28;100010.33;;;8.47;37.63
63339;BME280;47485;51.378;-1.342;2023-04-10T01:10:04;100004.47;;;6.93;37.49
63339;BME280;47485;51.378;-1.342;2023-04-10T01:12:52;99996.50;;;6.26;39.19
63339;BME280;47485;51.378;-1.342;2023-04-10T01:15:25;99993.40;;;5.96;39.79
63339;BME280;47485;51.378;-1.342;2023-04-10T01:18:00;99981.90;;;8.60;37.13
63339;BME280;47485;51.378;-1.342;2023-04-10T01:20:39;99982.09;;;8.80;36.83
63339;BME280;47485;51.378;-1.342;2023-04-10T01:23:45;99977.16;;;7.99;36.95
63339;BME280;47485;51.378;-1.342;2023-04-10T01:26:25;99973.63;;;7.31;36.70
63339;BME280;47485;51.378;-1.342;2023-04-10T01:29:07;99966.84;;;5.73;39.86
63339;BME280;47485;51.378;-1.342;2023-04-10T01:31:52;99963.18;;;5.49;40.05
63339;BME280;47485;51.378;-1.342;2023-04-10T01:34:24;99952.58;;;7.91;37.99
63339;BME280;47485;51.378;-1.342;2023-04-10T01:36:59;99952.06;;;3.54;42.23
63339;BME280;47485;51.378;-1.342;2023-04-10T01:39:28;99938.16;;;8.79;37.47
63339;BME280;47485;51.378;-1.342;2023-04-10T01:42:13;99934.51;;;7.57;37.73
63339;BME280;47485;51.378;-1.342;2023-04-10T01:44:46;99937.85;;;4.61;41.37
63339;BME280;47485;51.378;-1.342;2023-04-10T01:47:15;99933.21;;;6.63;39.03
63339;BME280;47485;51.378;-1.342;2023-04-10T01:49:47;99927.73;;;7.18;38.33
63339;BME280;47485;51.378;-1.342;2023-04-10T01:52:20;99920.98;;;7.15;38.27
63339;BME280;47485;51.378;-1.342;2023-04-10T01:54:54;99920.02;;;8.46;36.61
63339;BME280;47485;51.378;-1.342;2023-04-10T01:57:28;99920.77;;;7.70;38.43
63339;BME280;47485;51.378;-1.342;2023-04-10T01:59:56;99915.76;;;8.01;38.34
63339;BME280;47485;51.378;-1.342;2023-04-10T02:02:29;99906.76;;;7.31;38.53
63339;BME280;47485;51.378;-1.342;2023-04-10T02:04:57;99905.18;;;8.13;37.31
63339;BME280;47485;51.378;-1.342;2023-04-10T02:07:30;99898.48;;;7.90;37.01
63339;BME280;47485;51.378;-1.342;2023-04-10T02:10:08;99899.91;;;8.84;36.11
63339;BME280;47485;51.378;-1.342;2023-04-10T02:12:48;99897.38;;;10.72;34.68
63339;BME280;47485;51.378;-1.342;2023-04-10T02:15:23;99893.50;;;7.16;37.17
63339;BME280;47485;51.378;-1.342;2023-04-10T02:18:18;99889.98;;;8.31;36.27
63339;BME280;47485;51.378;-1.342;2023-04-10T02:21:13;99896.25;;;9.25;35.58
63339;BME280;47485;51.378;-1.342;2023-04-10T02:23:42;99893.63;;;4.78;39.33
63339;BME280;47485;51.378;-1.342;2023-04-10T02:26:10;99886.20;;;7.07;37.20
63339;BME280;47485;51.378;-1.342;2023-04-10T02:28:43;99881.86;;;9.19;34.23
63339;BME280;47485;51.378;-1.342;2023-04-10T02:31:16;99885.36;;;6.20;38.29
63339;BME280;47485;51.378;-1.342;2023-04-10T02:33:43;99880.07;;;8.08;36.85
63339;BME280;47485;51.378;-1.342;2023-04-10T02:36:25;99879.56;;;8.01;36.96
63339;BME280;47485;51.378;-1.342;2023-04-10T02:38:52;99878.59;;;6.93;38.55
63339;BME280;47485;51.378;-1.342;2023-04-10T02:41:23;99877.10;;;6.79;37.98
63339;BME280;47485;51.378;-1.342;2023-04-10T02:43:52;99871.51;;;7.76;37.07
63339;BME280;47485;51.378;-1.342;2023-04-10T02:46:21;99863.25;;;10.14;35.56
63339;BME280;47485;51.378;-1.342;2023-04-10T02:48:54;99865.91;;;8.51;35.74
63339;BME280;47485;51.378;-1.342;2023-04-10T02:51:23;99867.88;;;6.87;37.14
63339;BME280;47485;51.378;-1.342;2023-04-10T02:53:55;99861.00;;;7.42;36.98
63339;BME280;47485;51.378;-1.342;2023-04-10T02:56:24;99849.96;;;7.61;36.73
63339;BME280;47485;51.378;-1.342;2023-04-10T02:58:52;99845.60;;;7.11;36.75
63339;BME280;47485;51.378;-1.342;2023-04-10T03:01:22;99841.24;;;7.86;35.90
63339;BME280;47485;51.378;-1.342;2023-04-10T03:03:53;99839.00;;;7.69;35.94
63339;BME280;47485;51.378;-1.342;2023-04-10T03:06:27;99838.01;;;8.60;35.84
63339;BME280;47485;51.378;-1.342;2023-04-10T03:09:38;99833.25;;;9.20;34.85
63339;BME280;47485;51.378;-1.342;2023-04-10T03:12:08;99828.13;;;10.17;33.49
63339;BME280;47485;51.378;-1.342;2023-04-10T03:14:43;99835.27;;;9.44;36.11
63339;BME280;47485;51.378;-1.342;2023-04-10T03:17:11;99834.04;;;8.02;38.52
63339;BME280;47485;51.378;-1.342;2023-04-10T03:19:41;99836.32;;;8.15;38.75
63339;BME280;47485;51.378;-1.342;2023-04-10T03:22:23;99838.98;;;8.41;38.42
63339;BME280;47485;51.378;-1.342;2023-04-10T03:24:51;99837.26;;;7.66;40.44
63339;BME280;47485;51.378;-1.342;2023-04-10T03:27:43;99829.98;;;8.14;40.47
63339;BME280;47485;51.378;-1.342;2023-04-10T03:30:11;99827.81;;;6.50;41.88
63339;BME280;47485;51.378;-1.342;2023-04-10T03:32:40;99827.11;;;9.34;37.68
63339;BME280;47485;51.378;-1.342;2023-04-10T03:35:08;99827.70;;;9.71;38.38
63339;BME280;47485;51.378;-1.342;2023-04-10T03:37:43;99820.90;;;6.30;41.74
63339;BME280;47485;51.378;-1.342;2023-04-10T03:40:14;99811.46;;;6.96;41.37
63339;BME280;47485;51.378;-1.342;2023-04-10T03:42:43;99809.47;;;6.40;41.36
63339;BME280;47485;51.378;-1.342;2023-04-10T03:45:16;99810.28;;;8.80;39.55
63339;BME280;47485;51.378;-1.342;2023-04-10T03:47:56;99815.77;;;4.54;43.69
63339;BME280;47485;51.378;-1.342;2023-04-10T03:50:22;99807.85;;;6.73;42.78
63339;BME280;47485;51.378;-1.342;2023-04-10T03:53:05;99802.06;;;8.32;42.28
63339;BME280;47485;51.378;-1.342;2023-04-10T03:55:32;99797.59;;;7.47;42.07
63339;BME280;47485;51.378;-1.342;2023-04-10T03:58:00;99800.47;;;5.49;45.08
63339;BME280;47485;51.378;-1.342;2023-04-10T04:00:28;99796.56;;;5.45;46.11
63339;BME280;47485;51.378;-1.342;2023-04-10T04:03:02;99787.71;;;5.83;46.09
63339;BME280;47485;51.378;-1.342;2023-04-10T04:05:30;99771.49;;;5.51;44.45
63339;BME280;47485;51.378;-1.342;2023-04-10T04:07:57;99774.87;;;7.11;42.46
63339;BME280;47485;51.378;-1.342;2023-04-10T04:10:29;99768.86;;;8.85;41.65
63339;BME280;47485;51.378;-1.342;2023-04-10T04:12:56;99774.26;;;6.63;41.98
63339;BME280;47485;51.378;-1.342;2023-04-10T04:15:25;99772.74;;;6.02;43.79
63339;BME280;47485;51.378;-1.342;2023-04-10T04:17:53;99767.18;;;5.20;44.90
63339;BME280;47485;51.378;-1.342;2023-04-10T04:20:21;99758.47;;;4.31;46.34
63339;BME280;47485;51.378;-1.342;2023-04-10T04:23:08;99754.06;;;4.89;45.29
63339;BME280;47485;51.378;-1.342;2023-04-10T04:25:43;99752.26;;;6.25;43.05
63339;BME280;47485;51.378;-1.342;2023-04-10T04:28:21;99758.08;;;6.25;44.32
63339;BME280;47485;51.378;-1.342;2023-04-10T04:30:48;99763.39;;;4.13;46.68
63339;BME280;47485;51.378;-1.342;2023-04-10T04:33:24;99753.07;;;4.91;44.87
63339;BME280;47485;51.378;-1.342;2023-04-10T04:35:51;99753.27;;;5.35;46.45
63339;BME280;47485;51.378;-1.342;2023-04-10T04:38:40;99746.96;;;3.52;45.51
63339;BME280;47485;51.378;-1.342;2023-04-10T04:41:08;99741.99;;;4.44;44.42
63339;BME280;47485;51.378;-1.342;2023-04-10T04:43:36;99740.51;;;4.56;44.93
63339;BME280;47485;51.378;-1.342;2023-04-10T04:46:18;99726.85;;;6.10;42.77
63339;BME280;47485;51.378;-1.342;2023-04-10T04:48:46;99726.07;;;3.49;47.24
63339;BME280;47485;51.378;-1.342;2023-04-10T04:51:14;99717.66;;;3.58;46.08
63339;BME280;47485;51.378;-1.342;2023-04-10T04:53:48;99704.71;;;4.91;43.42
63339;BME280;47485;51.378;-1.342;2023-04-10T04:56:16;99692.85;;;3.58;44.39
63339;BME280;47485;51.378;-1.342;2023-04-10T04:58:47;99685.73;;;3.64;43.57
63339;BME280;47485;51.378;-1.342;2023-04-10T05:01:14;99682.49;;;4.02;43.10
63339;BME280;47485;51.378;-1.342;2023-04-10T05:03:43;99675.81;;;5.39;42.52
63339;BME280;47485;51.378;-1.342;2023-04-10T05:06:24;99684.23;;;3.96;43.87
63339;BME280;47485;51.378;-1.342;2023-04-10T05:08:52;99678.76;;;5.14;42.92
63339;BME280;47485;51.378;-1.342;2023-04-10T05:11:20;99672.60;;;3.16;44.35
63339;BME280;47485;51.378;-1.342;2023-04-10T05:13:49;99676.64;;;6.48;41.83
63339;BME280;47485;51.378;-1.342;2023-04-10T05:16:17;99680.23;;;6.08;41.20
63339;BME280;47485;51.378;-1.342;2023-04-10T05:18:45;99674.85;;;6.38;40.98
63339;BME280;47485;51.378;-1.342;2023-04-10T05:21:24;99681.25;;;5.05;42.16
63339;BME280;47485;51.378;-1.342;2023-04-10T05:23:51;99676.83;;;4.72;43.77
63339;BME280;47485;51.378;-1.342;2023-04-10T05:26:24;99670.93;;;6.75;41.23
63339;BME280;47485;51.378;-1.342;2023-04-10T05:28:57;99667.15;;;7.32;40.53
63339;BME280;47485;51.378;-1.342;2023-04-10T05:31:24;99666.42;;;3.88;44.25
63339;BME280;47485;51.378;-1.342;2023-04-10T05:33:51;99658.44;;;5.25;44.03
63339;BME280;47485;51.378;-1.342;2023-04-10T05:36:19;99650.53;;;4.10;44.06
63339;BME280;47485;51.378;-1.342;2023-04-10T05:38:48;99652.04;;;4.13;44.12
63339;BME280;47485;51.378;-1.342;2023-04-10T05:41:17;99653.51;;;4.92;44.45
63339;BME280;47485;51.378;-1.342;2023-04-10T05:43:46;99649.31;;;3.50;44.56
63339;BME280;47485;51.378;-1.342;2023-04-10T05:46:13;99650.21;;;5.78;41.37
63339;BME280;47485;51.378;-1.342;2023-04-10T05:48:41;99651.82;;;5.36;43.14
63339;BME280;47485;51.378;-1.342;2023-04-10T05:51:15;99646.08;;;5.94;41.39
63339;BME280;47485;51.378;-1.342;2023-04-10T05:53:43;99647.81;;;4.72;44.88
63339;BME280;47485;51.378;-1.342;2023-04-10T05:56:10;99641.06;;;6.69;43.83
63339;BME280;47485;51.378;-1.342;2023-04-10T05:58:43;99641.18;;;4.61;44.69
63339;BME280;47485;51.378;-1.342;2023-04-10T06:01:31;99643.04;;;3.54;47.00
63339;BME280;47485;51.378;-1.342;2023-04-10T06:04:08;99643.54;;;3.88;47.85
63339;BME280;47485;51.378;-1.342;2023-04-10T06:06:43;99641.03;;;5.83;44.55
63339;BME280;47485;51.378;-1.342;2023-04-10T06:09:10;99642.22;;;3.12;47.34
63339;BME280;47485;51.378;-1.342;2023-04-10T06:11:38;99641.25;;;3.56;48.43
63339;BME280;47485;51.378;-1.342;2023-04-10T06:14:05;99632.19;;;3.98;47.62
63339;BME280;47485;51.378;-1.342;2023-04-10T06:16:33;99626.76;;;5.50;46.49
63339;BME280;47485;51.378;-1.342;2023-04-10T06:18:59;99621.22;;;4.25;47.33
63339;BME280;47485;51.378;-1.342;2023-04-10T06:21:32;99618.39;;;6.21;45.47
63339;BME280;47485;51.378;-1.342;2023-04-10T06:24:01;99616.41;;;5.41;46.28
63339;BME280;47485;51.378;-1.342;2023-04-10T06:26:33;99616.08;;;4.41;46.23
63339;BME280;47485;51.378;-1.342;2023-04-10T06:29:06;99608.44;;;5.50;46.82
63339;BME280;47485;51.378;-1.342;2023-04-10T06:31:33;99612.67;;;5.90;45.90
63339;BME280;47485;51.378;-1.342;2023-04-10T06:34:10;99607.52;;;5.23;46.84
63339;BME280;47485;51.378;-1.342;2023-04-10T06:36:38;99604.00;;;7.26;45.87
63339;BME280;47485;51.378;-1.342;2023-04-10T06:39:08;99601.32;;;5.46;48.20
63339;BME280;47485;51.378;-1.342;2023-04-10T06:41:35;99595.88;;;5.37;49.30
63339;BME280;47485;51.378;-1.342;2023-04-10T06:44:05;99590.30;;;2.49;52.01
63339;BME280;47485;51.378;-1.342;2023-04-10T06:46:37;99581.96;;;2.80;51.04
63339;BME280;47485;51.378;-1.342;2023-04-10T06:49:03;99568.97;;;4.96;50.80
63339;BME280;47485;51.378;-1.342;2023-04-10T06:51:35;99565.62;;;4.26;49.82
63339;BME280;47485;51.378;-1.342;2023-04-10T06:54:03;99556.85;;;5.52;48.97
63339;BME280;47485;51.378;-1.342;2023-04-10T06:56:31;99548.89;;;4.23;50.60
63339;BME280;47485;51.378;-1.342;2023-04-10T06:58:58;99550.79;;;4.94;47.83
63339;BME280;47485;51.378;-1.342;2023-04-10T07:01:45;99550.07;;;5.40;49.51
63339;BME280;47485;51.378;-1.342;2023-04-10T07:04:21;99543.72;;;5.34;48.19
63339;BME280;47485;51.378;-1.342;2023-04-10T07:06:52;99548.06;;;4.56;49.13
63339;BME280;47485;51.378;-1.342;2023-04-10T07:09:34;99548.21;;;4.96;47.77
63339;BME280;47485;51.378;-1.342;2023-04-10T07:12:07;99546.95;;;3.08;50.03
63339;BME280;47485;51.378;-1.342;2023-04-10T07:14:33;99536.16;;;5.14;47.83
63339;BME280;47485;51.378;-1.342;2023-04-10T07:17:01;99534.27;;;5.49;49.42
63339;BME280;47485;51.378;-1.342;2023-04-10T07:19:29;99530.30;;;4.94;49.57
63339;BME280;47485;51.378;-1.342;2023-04-10T07:22:04;99529.09;;;3.44;52.15
63339;BME280;47485;51.378;-1.342;2023-04-10T07:24:52;99516.54;;;6.25;47.22
63339;BME280;47485;51.378;-1.342;2023-04-10T07:27:23;99522.09;;;4.01;50.57
63339;BME280;47485;51.378;-1.342;2023-04-10T07:29:58;99515.04;;;4.24;47.73
63339;BME280;47485;51.378;-1.342;2023-04-10T07:32:35;99511.46;;;3.98;49.05
63339;BME280;47485;51.378;-1.342;2023-04-10T07:35:06;99500.55;;;6.75;46.47
63339;BME280;47485;51.378;-1.342;2023-04-10T07:37:40;99498.65;;;3.66;50.25
63339;BME280;47485;51.378;-1.342;2023-04-10T07:40:16;99498.56;;;2.93;51.03
63339;BME280;47485;51.378;-1.342;2023-04-10T07:43:04;99502.77;;;5.41;48.83
63339;BME280;47485;51.378;-1.342;2023-04-10T07:45:33;99497.09;;;7.05;49.51
63339;BME280;47485;51.378;-1.342;2023-04-10T07:48:11;99493.08;;;5.39;47.77
63339;BME280;47485;51.378;-1.342;2023-04-10T07:50:45;99487.12;;;4.77;48.37
63339;BME280;47485;51.378;-1.342;2023-04-10T07:53:12;99493.01;;;6.44;49.68
63339;BME280;47485;51.378;-1.342;2023-04-10T07:55:43;99488.53;;;4.65;50.25
63339;BME280;47485;51.378;-1.342;2023-04-10T07:58:14;99485.36;;;5.20;48.78
63339;BME280;47485;51.378;-1.342;2023-04-10T08:00:43;99473.97;;;3.49;50.39
63339;BME280;47485;51.378;-1.342;2023-04-10T08:03:16;99467.29;;;5.76;48.45
63339;BME280;47485;51.378;-1.342;2023-04-10T08:05:54;99468.12;;;6.05;48.98
63339;BME280;47485;51.378;-1.342;2023-04-10T08:08:26;99463.12;;;5.60;50.31
63339;BME280;47485;51.378;-1.342;2023-04-10T08:10:54;99471.09;;;1.64;55.28
63339;BME280;47485;51.378;-1.342;2023-04-10T08:13:23;99464.75;;;5.76;51.24
63339;BME280;47485;51.378;-1.342;2023-04-10T08:15:51;99455.65;;;4.80;49.68
63339;BME280;47485;51.378;-1.342;2023-04-10T08:18:20;99454.04;;;3.93;49.67
63339;BME280;47485;51.378;-1.342;2023-04-10T08:20:54;99458.14;;;4.43;49.45
63339;BME280;47485;51.378;-1.342;2023-04-10T08:23:43;99452.18;;;6.33;47.76
63339;BME280;47485;51.378;-1.342;2023-04-10T08:26:14;99449.25;;;6.97;45.46
63339;BME280;47485;51.378;-1.342;2023-04-10T08:28:43;99457.37;;;7.50;45.28
63339;BME280;47485;51.378;-1.342;2023-04-10T08:31:10;99458.34;;;5.75;49.00
63339;BME280;47485;51.378;-1.342;2023-04-10T08:33:43;99457.66;;;5.57;48.96
63339;BME280;47485;51.378;-1.342;2023-04-10T08:36:12;99455.99;;;4.41;48.96
63339;BME280;47485;51.378;-1.342;2023-04-10T08:38:45;99449.76;;;4.75;49.61
63339;BME280;47485;51.378;-1.342;2023-04-10T08:41:13;99453.04;;;7.90;44.67
63339;BME280;47485;51.378;-1.342;2023-04-10T08:43:48;99456.75;;;4.89;47.96
63339;BME280;47485;51.378;-1.342;2023-04-10T08:46:17;99446.84;;;6.56;48.00
63339;BME280;47485;51.378;-1.342;2023-04-10T08:48:52;99441.46;;;6.13;47.95
63339;BME280;47485;51.378;-1.342;2023-04-10T08:51:46;99433.73;;;5.91;47.61
63339;BME280;47485;51.378;-1.342;2023-04-10T08:54:42;99420.32;;;4.80;49.11
63339;BME280;47485;51.378;-1.342;2023-04-10T08:57:20;99432.34;;;3.96;49.70
63339;BME280;47485;51.378;-1.342;2023-04-10T09:03:54;99436.11;;;5.20;49.28
63339;BME280;47485;51.378;-1.342;2023-04-10T09:06:21;99435.15;;;5.92;48.44
63339;BME280;47485;51.378;-1.342;2023-04-10T09:09:05;99432.57;;;6.60;48.18
63339;BME280;47485;51.378;-1.342;2023-04-10T09:12:07;99438.45;;;7.26;46.07
63339;BME280;47485;51.378;-1.342;2023-04-10T09:14:43;99443.26;;;6.42;48.38
63339;BME280;47485;51.378;-1.342;2023-04-10T09:17:14;99445.11;;;6.16;49.62
63339;BME280;47485;51.378;-1.342;2023-04-10T09:19:45;99443.84;;;6.19;48.70
63339;BME280;47485;51.378;-1.342;2023-04-10T09:22:14;99448.72;;;5.36;50.95
63339;BME280;47485;51.378;-1.342;2023-04-10T09:24:45;99445.25;;;6.18;49.45
63339;BME280;47485;51.378;-1.342;2023-04-10T09:27:28;99434.08;;;6.39;48.05
63339;BME280;47485;51.378;-1.342;2023-04-10T09:30:01;99431.04;;;7.00;46.50
63339;BME280;47485;51.378;-1.342;2023-04-10T09:32:38;99429.55;;;6.81;48.46
63339;BME280;47485;51.378;-1.342;2023-04-10T09:35:09;99425.54;;;7.50;46.18
63339;BME280;47485;51.378;-1.342;2023-04-10T09:37:40;99426.31;;;5.88;48.24
63339;BME280;47485;51.378;-1.342;2023-04-10T09:40:20;99419.97;;;6.72;48.13
63339;BME280;47485;51.378;-1.342;2023-04-10T09:42:47;99415.81;;;6.78;50.20
63339;BME280;47485;51.378;-1.342;2023-04-10T09:45:14;99415.97;;;6.46;50.19
63339;BME280;47485;51.378;-1.342;2023-04-10T09:47:42;99413.61;;;7.18;48.74
63339;BME280;47485;51.378;-1.342;2023-04-10T09:50:10;99407.18;;;6.53;48.21
63339;BME280;47485;51.378;-1.342;2023-04-10T09:52:37;99409.86;;;6.36;48.43
63339;BME280;47485;51.378;-1.342;2023-04-10T09:55:06;99407.63;;;7.88;48.25
63339;BME280;47485;51.378;-1.342;2023-04-10T09:57:34;99396.32;;;8.86;48.83
63339;BME280;47485;51.378;-1.342;2023-04-10T10:00:05;99402.51;;;6.79;50.95
63339;BME280;47485;51.378;-1.342;2023-04-10T10:02:36;99397.28;;;5.75;51.98
63339;BME280;47485;51.378;-1.342;2023-04-10T10:05:04;99388.96;;;6.38;50.01
63339;BME280;47485;51.378;-1.342;2023-04-10T10:07:32;99382.95;;;6.46;49.71
63339;BME280;47485;51.378;-1.342;2023-04-10T10:10:03;99374.37;;;4.88;51.18
63339;BME280;47485;51.378;-1.342;2023-04-10T10:12:44;99376.25;;;7.10;51.53
63339;BME280;47485;51.378;-1.342;2023-04-10T10:15:21;99372.68;;;6.95;50.10
63339;BME280;47485;51.378;-1.342;2023-04-10T10:17:59;99370.50;;;6.12;49.08
63339;BME280;47485;51.378;-1.342;2023-04-10T10:20:32;99370.89;;;8.17;47.55
63339;BME280;47485;51.378;-1.342;2023-04-10T10:23:02;99370.51;;;6.16;49.69
63339;BME280;47485;51.378;-1.342;2023-04-10T10:25:42;99372.21;;;6.40;49.46
63339;BME280;47485;51.378;-1.342;2023-04-10T10:28:13;99366.86;;;6.12;49.44
63339;BME280;47485;51.378;-1.342;2023-04-10T10:30:44;99361.73;;;6.00;49.67
63339;BME280;47485;51.378;-1.342;2023-04-10T10:34:42;99371.78;;;7.24;49.03
63339;BME280;47485;51.378;-1.342;2023-04-10T10:37:13;99371.01;;;7.53;48.90
63339;BME280;47485;51.378;-1.342;2023-04-10T10:39:52;99369.22;;;7.95;49.06
63339;BME280;47485;51.378;-1.342;2023-04-10T10:42:44;99364.22;;;6.77;49.23
63339;BME280;47485;51.378;-1.342;2023-04-10T10:45:45;99378.66;;;8.30;48.99
63339;BME280;47485;51.378;-1.342;2023-04-10T10:48:20;99386.07;;;6.93;51.11
63339;BME280;47485;51.378;-1.342;2023-04-10T10:50:59;99389.09;;;6.11;51.29
63339;BME280;47485;51.378;-1.342;2023-04-10T10:54:30;99388.45;;;6.15;52.78
63339;BME280;47485;51.378;-1.342;2023-04-10T10:57:49;99387.99;;;6.03;51.94
63339;BME280;47485;51.378;-1.342;2023-04-10T11:14:12;99361.35;;;5.53;51.34
63339;BME280;47485;51.378;-1.342;2023-04-10T11:16:46;99358.20;;;5.44;46.20
63339;BME280;47485;51.378;-1.342;2023-04-10T11:19:19;99351.53;;;5.74;46.12
63339;BME280;47485;51.378;-1.342;2023-04-10T11:22:18;99355.18;;;7.06;45.49
63339;BME280;47485;51.378;-1.342;2023-04-10T11:24:56;99357.20;;;5.04;47.72
63339;BME280;47485;51.378;-1.342;2023-04-10T11:27:44;99363.95;;;5.58;47.11
63339;BME280;47485;51.378;-1.342;2023-04-10T11:30:43;99357.28;;;5.25;47.47
63339;BME280;47485;51.378;-1.342;2023-04-10T11:33:16;99351.92;;;7.39;45.29
63339;BME280;47485;51.378;-1.342;2023-04-10T11:35:46;99351.10;;;7.92;42.91
63339;BME280;47485;51.378;-1.342;2023-04-10T11:39:02;99355.12;;;7.06;44.37
63339;BME280;47485;51.378;-1.342;2023-04-10T11:41:49;99353.79;;;6.14;44.54
63339;BME280;47485;51.378;-1.342;2023-04-10T12:03:47;99342.72;;;5.69;45.80
63339;BME280;47485;51.378;-1.342;2023-04-10T12:15:01;99380.36;;;5.32;48.52
63339;BME280;47485;51.378;-1.342;2023-04-10T12:19:43;99372.44;;;4.97;50.81
63339;BME280;47485;51.378;-1.342;2023-04-10T12:27:35;99375.68;;;6.30;49.17
63339;BME280;47485;51.378;-1.342;2023-04-10T12:30:39;99369.22;;;4.24;49.09
63339;BME280;47485;51.378;-1.342;2023-04-10T12:41:40;99383.37;;;4.64;43.81
63339;BME280;47485;51.378;-1.342;2023-04-10T12:48:28;99372.75;;;4.39;46.78
63339;BME280;47485;51.378;-1.342;2023-04-10T12:56:50;99381.03;;;4.37;46.41
63339;BME280;47485;51.378;-1.342;2023-04-10T12:59:19;99378.02;;;5.56;45.61
63339;BME280;47485;51.378;-1.342;2023-04-10T13:01:53;99398.14;;;6.13;43.51
63339;BME280;47485;51.378;-1.342;2023-04-10T13:04:23;99388.39;;;4.75;43.62
63339;BME280;47485;51.378;-1.342;2023-04-10T13:06:51;99395.66;;;4.99;43.95
63339;BME280;47485;51.378;-1.342;2023-04-10T13:09:19;99393.14;;;5.28;44.20
63339;BME280;47485;51.378;-1.342;2023-04-10T13:11:46;99397.63;;;4.71;46.13
63339;BME280;47485;51.378;-1.342;2023-04-10T13:14:33;99393.81;;;6.11;43.70
63339;BME280;47485;51.378;-1.342;2023-04-10T13:17:03;99389.17;;;6.00;44.19
63339;BME280;47485;51.378;-1.342;2023-04-10T13:19:51;99394.17;;;5.51;42.42
63339;BME280;47485;51.378;-1.342;2023-04-10T13:22:44;99397.85;;;6.19;42.55
63339;BME280;47485;51.378;-1.342;2023-04-10T13:25:19;99398.66;;;6.68;39.93
63339;BME280;47485;51.378;-1.342;2023-04-10T13:29:13;99400.20;;;6.25;39.32
63339;BME280;47485;51.378;-1.342;2023-04-10T13:31:46;99382.93;;;5.95;38.32
63339;BME280;47485;51.378;-1.342;2023-04-10T13:34:27;99388.69;;;6.43;39.04
63339;BME280;47485;51.378;-1.342;2023-04-10T13:37:04;99390.03;;;4.69;39.51
63339;BME280;47485;51.378;-1.342;2023-04-10T13:39:42;99385.20;;;5.74;39.30
63339;BME280;47485;51.378;-1.342;2023-04-10T13:42:29;99400.66;;;6.34;39.45
63339;BME280;47485;51.378;-1.342;2023-04-10T13:45:08;99394.47;;;6.13;36.84
63339;BME280;47485;51.378;-1.342;2023-04-10T13:47:40;99392.04;;;6.55;37.39
63339;BME280;47485;51.378;-1.342;2023-04-10T13:50:10;99382.98;;;5.35;36.33
63339;BME280;47485;51.378;-1.342;2023-04-10T13:52:52;99390.33;;;6.66;35.65
63339;BME280;47485;51.378;-1.342;2023-04-10T13:55:20;99378.54;;;6.31;36.05
63339;BME280;47485;51.378;-1.342;2023-04-10T14:04:04;99366.49;;;7.81;35.78
63339;BME280;47485;51.378;-1.342;2023-04-10T14:07:00;99359.46;;;7.66;34.91
63339;BME280;47485;51.378;-1.342;2023-04-10T14:10:24;99364.78;;;6.95;37.44
63339;BME280;47485;51.378;-1.342;2023-04-10T14:12:59;99359.76;;;5.87;37.30
63339;BME280;47485;51.378;-1.342;2023-04-10T14:15:33;99366.04;;;6.74;36.98
63339;BME280;47485;51.378;-1.342;2023-04-10T14:40:13;99385.59;;;7.02;35.81
63339;BME280;47485;51.378;-1.342;2023-04-10T14:44:11;99397.38;;;6.50;35.96
63339;BME280;47485;51.378;-1.342;2023-04-10T14:47:07;99399.22;;;7.03;34.83
63339;BME280;47485;51.378;-1.342;2023-04-10T14:49:42;99395.26;;;6.02;34.12
63339;BME280;47485;51.378;-1.342;2023-04-10T14:53:07;99403.73;;;7.95;36.84
63339;BME280;47485;51.378;-1.342;2023-04-10T14:55:52;99413.64;;;6.35;36.55
63339;BME280;47485;51.378;-1.342;2023-04-10T14:58:45;99411.49;;;6.46;36.58
63339;BME280;47485;51.378;-1.342;2023-04-10T15:01:24;99406.51;;;5.49;36.71
63339;BME280;47485;51.378;-1.342;2023-04-10T15:07:57;99417.39;;;7.12;37.11
63339;BME280;47485;51.378;-1.342;2023-04-10T15:10:32;99428.01;;;4.93;37.46
63339;BME280;47485;51.378;-1.342;2023-04-10T15:13:11;99423.12;;;4.65;37.03
63339;BME280;47485;51.378;-1.342;2023-04-10T15:16:11;99404.14;;;5.81;37.07
63339;BME280;47485;51.378;-1.342;2023-04-10T15:18:38;99403.56;;;4.95;36.02
63339;BME280;47485;51.378;-1.342;2023-04-10T15:21:44;99395.82;;;5.64;36.34
63339;BME280;47485;51.378;-1.342;2023-04-10T15:24:15;99383.39;;;6.46;35.32
63339;BME280;47485;51.378;-1.342;2023-04-10T15:26:44;99384.63;;;7.11;33.81
63339;BME280;47485;51.378;-1.342;2023-04-10T15:30:19;99376.37;;;8.10;32.30
63339;BME280;47485;51.378;-1.342;2023-04-10T15:32:57;99377.99;;;6.61;33.20
63339;BME280;47485;51.378;-1.342;2023-04-10T15:36:12;99364.60;;;5.33;34.19
63339;BME280;47485;51.378;-1.342;2023-04-10T15:38:56;99363.51;;;6.03;35.99
63339;BME280;47485;51.378;-1.342;2023-04-10T15:42:15;99359.17;;;5.71;34.68
63339;BME280;47485;51.378;-1.342;2023-04-10T15:44:44;99366.28;;;5.92;35.62